Time;durP1;ratioP1;P1;durP2;ratioP2;P2;SDS_P1;SDS_P2;PMS_P1;PMS_P2;Temp;Humidity;BMP_temperature;BMP_pressure;BME280_temperature;BME280_humidity;BME280_pressure;Samples;Min_cycle;Max_cycle;Signal;HPM_P1;HPM_P2
2022/10/31 00:01:44;;;;;;;3.30;2.65;;;;;;;;;;10387978;28;20128;-59
2022/10/31 00:06:44;;;;;;;3.13;2.40;;;;;;;;;;10389232;28;20025;-58
2022/10/31 00:11:45;;;;;;;4.72;2.65;;;;;;;;;;10398162;28;20411;-56
2022/10/31 00:16:45;;;;;;;4.45;2.80;;;;;;;;;;10381296;28;20025;-53
2022/10/31 00:21:45;;;;;;;3.30;2.87;;;;;;;;;;10407587;28;20131;-59
2022/10/31 00:26:45;;;;;;;3.50;2.90;;;;;;;;;;10394306;28;20431;-59
2022/10/31 00:31:46;;;;;;;4.07;2.75;;;;;;;;;;10394179;28;20041;-60
2022/10/31 00:36:46;;;;;;;3.87;2.90;;;;;;;;;;10406795;28;20033;-59
2022/10/31 00:41:46;;;;;;;4.47;2.53;;;;;;;;;;10399430;28;20098;-57
2022/10/31 00:46:47;;;;;;;2.67;2.35;;;;;;;;;;10416072;28;20029;-58
2022/10/31 00:51:47;;;;;;;6.25;2.70;;;;;;;;;;10415256;28;20033;-59
2022/10/31 00:56:47;;;;;;;3.88;3.00;;;;;;;;;;10395182;28;20363;-59
2022/10/31 01:01:47;;;;;;;4.28;2.60;;;;;;;;;;10395528;28;20419;-59
2022/10/31 01:06:48;;;;;;;4.63;3.00;;;;;;;;;;10414238;28;20036;-60
2022/10/31 01:11:48;;;;;;;5.68;2.67;;;;;;;;;;10412324;28;20021;-57
2022/10/31 01:16:48;;;;;;;4.43;3.00;;;;;;;;;;10401329;28;20026;-58
2022/10/31 01:21:48;;;;;;;4.13;2.78;;;;;;;;;;10414047;28;20018;-57
2022/10/31 01:26:49;;;;;;;7.68;3.03;;;;;;;;;;10413449;28;20026;-58
2022/10/31 01:31:49;;;;;;;4.15;2.75;;;;;;;;;;10413377;28;20116;-59
2022/10/31 01:36:51;;;;;;;3.45;2.90;;;;;;;;;;10402654;28;20157;-60
2022/10/31 01:41:52;;;;;;;3.75;2.55;;;;;;;;;;10410566;28;20108;-59
2022/10/31 01:47:00;;;;;;;2.70;2.40;;;;;;;;;;10399038;28;20034;-59
2022/10/31 01:52:01;;;;;;;;;;;;;;;;;;10400317;28;20091;-60
2022/10/31 01:57:02;;;;;;;3.83;2.53;;;;;;;;;;10376887;28;19913;-60
2022/10/31 02:02:02;;;;;;;5.72;2.92;;;;;;;;;;10373201;28;20046;-58
2022/10/31 02:07:04;;;;;;;5.05;3.15;;;;;;;;;;10399814;28;20029;-60
2022/10/31 02:12:05;;;;;;;6.22;2.92;;;;;;;;;;10395080;28;20084;-60
2022/10/31 02:17:06;;;;;;;5.35;3.00;;;;;;;;;;10398902;28;20053;-58
2022/10/31 02:22:16;;;;;;;4.23;3.20;;;;;;;;;;10411248;28;20037;-58
2022/10/31 02:27:32;;;;;;;5.30;2.90;;;;;;;;;;10390186;28;20030;-57
2022/10/31 02:32:51;;;;;;;3.58;2.40;;;;;;;;;;10395196;28;20028;-59
2022/10/31 02:37:51;;;;;;;3.30;2.78;;;;;;;;;;10411311;28;20029;-59
2022/10/31 02:42:51;;;;;;;3.50;2.72;;;;;;;;;;10400251;28;20108;-58
2022/10/31 02:47:53;;;;;;;3.72;3.00;;;;;;;;;;10397910;28;20033;-55
2022/10/31 02:52:54;;;;;;;4.95;3.00;;;;;;;;;;10394631;28;20108;-55
2022/10/31 02:57:56;;;;;;;5.88;3.30;;;;;;;;;;10409695;28;20380;-54
2022/10/31 03:03:00;;;;;;;4.45;3.00;;;;;;;;;;10396203;28;20026;-55
2022/10/31 03:08:00;;;;;;;3.83;3.10;;;;;;;;;;10396240;28;20029;-57
2022/10/31 03:13:05;;;;;;;4.27;2.70;;;;;;;;;;10408283;28;20427;-55
2022/10/31 03:18:10;;;;;;;3.65;2.70;;;;;;;;;;10383034;28;20102;-56
2022/10/31 03:23:13;;;;;;;5.32;3.05;;;;;;;;;;10408834;28;20114;-57
2022/10/31 03:28:15;;;;;;;4.75;2.78;;;;;;;;;;10395744;28;20399;-58
2022/10/31 03:33:17;;;;;;;4.68;3.00;;;;;;;;;;10392350;28;20036;-58
2022/10/31 03:38:18;;;;;;;5.10;2.70;;;;;;;;;;10407573;28;20090;-56
2022/10/31 03:43:27;;;;;;;4.47;3.03;;;;;;;;;;10407325;28;20025;-59
2022/10/31 03:48:28;;;;;;;8.00;3.17;;;;;;;;;;10394919;28;20471;-58
2022/10/31 03:53:31;;;;;;;5.18;2.58;;;;;;;;;;10397402;28;20030;-57
2022/10/31 03:58:39;;;;;;;5.82;3.08;;;;;;;;;;10405617;28;20124;-55
2022/10/31 04:03:39;;;;;;;4.97;2.75;;;;;;;;;;10381744;28;20033;-54
2022/10/31 04:08:42;;;;;;;3.97;3.00;;;;;;;;;;10407076;28;20079;-59
2022/10/31 04:13:43;;;;;;;4.15;2.75;;;;;;;;;;10407509;28;20446;-57
2022/10/31 04:18:44;;;;;;;4.15;3.00;;;;;;;;;;10394211;28;20033;-59
2022/10/31 04:23:44;;;;;;;3.57;2.70;;;;;;;;;;10407900;28;20029;-58
2022/10/31 04:28:44;;;;;;;4.32;2.92;;;;;;;;;;10407154;28;20037;-59
2022/10/31 04:33:45;;;;;;;4.17;2.93;;;;;;;;;;10397996;28;20026;-56
2022/10/31 04:38:45;;;;;;;4.18;2.83;;;;;;;;;;10402087;28;20029;-55
2022/10/31 04:43:45;;;;;;;3.70;2.90;;;;;;;;;;10393004;28;20032;-54
2022/10/31 04:48:45;;;;;;;4.38;2.75;;;;;;;;;;10406538;28;20033;-60
2022/10/31 04:53:46;;;;;;;3.50;2.97;;;;;;;;;;10406664;28;20028;-58
2022/10/31 04:58:46;;;;;;;4.18;2.78;;;;;;;;;;10405666;28;20041;-57
2022/10/31 05:03:46;;;;;;;4.65;3.17;;;;;;;;;;10394409;28;20037;-52
2022/10/31 05:08:47;;;;;;;4.27;2.73;;;;;;;;;;10393722;28;20487;-56
2022/10/31 05:13:47;;;;;;;5.15;2.83;;;;;;;;;;10394986;28;20026;-56
2022/10/31 05:18:47;;;;;;;5.30;2.83;;;;;;;;;;10405625;28;20480;-54
2022/10/31 05:23:47;;;;;;;5.05;3.03;;;;;;;;;;10393026;28;20464;-57
2022/10/31 05:28:48;;;;;;;4.33;3.17;;;;;;;;;;10399745;28;20393;-59
2022/10/31 05:33:48;;;;;;;4.90;2.90;;;;;;;;;;10413388;28;20032;-55
2022/10/31 05:38:48;;;;;;;4.93;3.08;;;;;;;;;;10413451;28;20535;-55
2022/10/31 05:43:48;;;;;;;2.63;2.40;;;;;;;;;;10392097;28;20371;-60
2022/10/31 05:48:49;;;;;;;5.60;2.77;;;;;;;;;;10374730;28;20033;-58
2022/10/31 05:53:49;;;;;;;5.70;2.83;;;;;;;;;;10392693;28;20025;-59
2022/10/31 05:58:49;;;;;;;4.15;2.90;;;;;;;;;;10398178;28;20054;-58
2022/10/31 06:03:49;;;;;;;4.40;2.40;;;;;;;;;;10387438;28;20033;-55
2022/10/31 06:08:50;;;;;;;4.68;2.75;;;;;;;;;;10399991;28;20032;-56
2022/10/31 06:13:50;;;;;;;3.28;2.70;;;;;;;;;;10412836;28;20037;-58
2022/10/31 06:18:50;;;;;;;3.10;2.60;;;;;;;;;;10411752;28;20035;-58
2022/10/31 06:23:51;;;;;;;4.80;3.00;;;;;;;;;;10411201;28;20032;-58
2022/10/31 06:28:51;;;;;;;4.35;3.00;;;;;;;;;;10398410;28;20112;-59
2022/10/31 06:33:51;;;;;;;2.77;2.33;;;;;;;;;;10411805;28;20026;-55
2022/10/31 06:38:52;;;;;;;4.13;3.05;;;;;;;;;;10409614;28;20384;-56
2022/10/31 06:43:52;;;;;;;4.43;2.92;;;;;;;;;;10402519;28;20480;-58
2022/10/31 06:48:52;;;;;;;5.47;2.78;;;;;;;;;;10405502;28;20066;-56
2022/10/31 06:53:52;;;;;;;3.97;2.90;;;;;;;;;;10397421;28;20091;-57
2022/10/31 06:58:53;;;;;;;6.18;2.80;;;;;;;;;;10420221;23;20148;-56
2022/10/31 07:03:53;;;;;;;4.93;2.60;;;;;;;;;;10385366;28;20095;-56
2022/10/31 07:08:53;;;;;;;4.55;2.90;;;;;;;;;;10396899;28;20492;-57
2022/10/31 07:13:53;;;;;;;5.68;3.25;;;;;;;;;;10410205;28;20534;-55
2022/10/31 07:18:54;;;;;;;4.30;2.63;;;;;;;;;;10396229;28;20033;-55
2022/10/31 07:23:54;;;;;;;4.35;2.60;;;;;;;;;;10395803;28;20419;-55
2022/10/31 07:28:54;;;;;;;4.13;2.33;;;;;;;;;;10395548;28;20083;-54
2022/10/31 07:33:55;;;;;;;3.50;2.40;;;;;;;;;;10408673;28;20091;-60
2022/10/31 07:38:55;;;;;;;6.25;3.10;;;;;;;;;;10409109;28;20040;-53
2022/10/31 07:43:55;;;;;;;3.80;2.60;;;;;;;;;;10394271;28;20065;-55
2022/10/31 07:48:55;;;;;;;4.10;2.92;;;;;;;;;;10407672;28;20108;-56
2022/10/31 07:53:56;;;;;;;5.10;3.35;;;;;;;;;;10395051;28;20021;-56
2022/10/31 07:58:56;;;;;;;4.30;2.67;;;;;;;;;;10405606;28;20041;-54
2022/10/31 08:03:56;;;;;;;4.57;2.70;;;;;;;;;;10383498;28;20033;-56
2022/10/31 08:08:56;;;;;;;5.90;2.78;;;;;;;;;;10407236;28;20021;-55
2022/10/31 08:13:57;;;;;;;4.55;3.10;;;;;;;;;;10394512;28;20160;-55
2022/10/31 08:18:57;;;;;;;4.03;2.63;;;;;;;;;;10407315;28;20025;-54
2022/10/31 08:23:57;;;;;;;4.93;2.78;;;;;;;;;;10382546;28;20025;-55
2022/10/31 08:28:58;;;;;;;5.20;2.50;;;;;;;;;;10405416;28;20087;-51
2022/10/31 08:33:58;;;;;;;5.10;2.75;;;;;;;;;;10394125;28;20033;-54
2022/10/31 08:38:58;;;;;;;5.18;2.80;;;;;;;;;;10393615;28;20042;-55
2022/10/31 08:43:58;;;;;;;4.67;2.87;;;;;;;;;;10392815;28;20053;-56
2022/10/31 08:48:59;;;;;;;4.05;2.72;;;;;;;;;;10392421;28;20435;-56
2022/10/31 08:53:59;;;;;;;2.95;2.35;;;;;;;;;;10406358;28;20025;-56
2022/10/31 08:59:01;;;;;;;3.05;2.70;;;;;;;;;;10403664;28;20149;-58
2022/10/31 09:04:01;;;;;;;5.30;3.13;;;;;;;;;;10403214;28;20117;-60
2022/10/31 09:09:01;;;;;;;8.52;2.70;;;;;;;;;;10401174;28;20030;-56
2022/10/31 09:14:01;;;;;;;5.03;2.72;;;;;;;;;;10400732;28;20075;-53
2022/10/31 09:19:02;;;;;;;3.00;2.40;;;;;;;;;;10401254;28;20033;-54
2022/10/31 09:24:02;;;;;;;5.37;3.20;;;;;;;;;;10401248;28;20033;-54
2022/10/31 09:29:02;;;;;;;4.50;2.60;;;;;;;;;;10399649;28;20037;-57
2022/10/31 09:34:03;;;;;;;3.67;2.70;;;;;;;;;;10402464;28;20481;-57
2022/10/31 09:39:03;;;;;;;3.03;2.53;;;;;;;;;;10410808;28;20057;-57
2022/10/31 09:44:12;;;;;;;2.90;2.57;;;;;;;;;;10389644;28;20033;-56
2022/10/31 09:49:12;;;;;;;4.30;2.88;;;;;;;;;;10410221;28;20030;-56
2022/10/31 09:54:16;;;;;;;3.25;2.42;;;;;;;;;;10412418;28;20388;-56
2022/10/31 09:59:29;;;;;;;3.53;2.65;;;;;;;;;;10403409;28;20362;-57
2022/10/31 10:04:59;;;;;;;9.95;3.17;;;;;;;;;;10391885;28;20049;-54
2022/10/31 10:10:00;;;;;;;3.67;2.53;;;;;;;;;;10402738;28;20045;-55
2022/10/31 10:15:20;;;;;;;4.15;2.70;;;;;;;;;;10403124;28;20030;-52
2022/10/31 10:20:26;;;;;;;5.05;2.92;;;;;;;;;;10409015;28;20424;-55
2022/10/31 10:25:34;;;;;;;3.33;2.50;;;;;;;;;;10388895;28;20034;-56
2022/10/31 10:30:34;;;;;;;;;;;;;;;;;;10396189;28;20037;-55
2022/10/31 10:35:39;;;;;;;3.00;2.30;;;;;;;;;;10397818;28;19917;-55
2022/10/31 10:40:39;;;;;;;4.63;2.60;;;;;;;;;;10397173;28;20025;-58
2022/10/31 10:51:00;;;;;;;5.03;2.50;;;;;;;;;;10400470;28;20463;-54
2022/10/31 10:56:00;;;;;;;4.35;2.67;;;;;;;;;;10407374;28;20026;-55
2022/10/31 11:01:00;;;;;;;4.47;2.58;;;;;;;;;;10396578;28;20083;-56
2022/10/31 11:06:01;;;;;;;4.75;2.60;;;;;;;;;;10409812;28;20025;-56
2022/10/31 11:11:13;;;;;;;5.32;2.75;;;;;;;;;;10405905;28;20022;-56
2022/10/31 11:16:15;;;;;;;3.50;2.50;;;;;;;;;;10388116;28;20025;-52
2022/10/31 11:21:21;;;;;;;5.72;2.90;;;;;;;;;;10396003;28;20381;-54
2022/10/31 11:26:21;;;;;;;3.83;2.33;;;;;;;;;;10404760;28;20062;-55
2022/10/31 11:31:21;;;;;;;4.07;3.00;;;;;;;;;;10399348;28;20113;-56
2022/10/31 11:36:24;;;;;;;4.05;2.30;;;;;;;;;;10408629;28;20044;-54
2022/10/31 11:41:31;;;;;;;3.90;2.40;;;;;;;;;;10406954;28;20037;-54
2022/10/31 11:46:35;;;;;;;6.03;2.40;;;;;;;;;;10408610;28;20505;-57
2022/10/31 11:51:36;;;;;;;5.10;2.40;;;;;;;;;;10407959;28;20034;-56
2022/10/31 11:56:40;;;;;;;5.68;2.60;;;;;;;;;;10408529;28;20481;-59
2022/10/31 12:01:46;;;;;;;2.78;2.53;;;;;;;;;;10391899;28;20045;-59
2022/10/31 12:06:47;;;;;;;3.30;2.70;;;;;;;;;;10397198;28;20033;-56
2022/10/31 12:11:50;;;;;;;3.05;2.47;;;;;;;;;;10391706;28;20491;-56
2022/10/31 12:16:56;;;;;;;6.72;2.67;;;;;;;;;;10407503;28;20100;-55
2022/10/31 12:22:06;;;;;;;3.53;2.63;;;;;;;;;;10399060;28;20097;-55
2022/10/31 12:27:15;;;;;;;4.35;2.50;;;;;;;;;;10391455;28;20033;-55
2022/10/31 12:32:22;;;;;;;4.60;2.45;;;;;;;;;;10396784;28;20080;-55
2022/10/31 12:37:41;;;;;;;4.10;2.47;;;;;;;;;;10388633;28;20022;-54
2022/10/31 12:42:53;;;;;;;4.63;2.40;;;;;;;;;;10414034;28;20065;-56
2022/10/31 12:48:03;;;;;;;4.97;2.70;;;;;;;;;;10402709;28;20029;-50
2022/10/31 12:53:28;;;;;;;2.83;2.25;;;;;;;;;;10402653;28;20120;-56
2022/10/31 12:58:31;;;;;;;4.35;2.50;;;;;;;;;;10404449;28;20042;-57
2022/10/31 13:03:42;;;;;;;3.13;2.58;;;;;;;;;;10401879;28;20068;-56
2022/10/31 13:08:57;;;;;;;4.45;2.55;;;;;;;;;;10413746;28;20025;-52
2022/10/31 13:13:57;;;;;;;4.20;2.55;;;;;;;;;;10401626;28;20022;-54
2022/10/31 13:19:04;;;;;;;3.05;2.22;;;;;;;;;;10401251;28;20037;-56
2022/10/31 13:24:08;;;;;;;3.35;2.40;;;;;;;;;;10401668;28;20065;-54
2022/10/31 13:29:27;;;;;;;3.30;2.35;;;;;;;;;;10400581;28;20361;-56
2022/10/31 13:34:33;;;;;;;3.97;2.40;;;;;;;;;;10401418;28;20431;-55
2022/10/31 13:39:33;;;;;;;5.60;2.58;;;;;;;;;;10412960;28;20025;-54
2022/10/31 13:44:37;;;;;;;4.10;2.57;;;;;;;;;;10412888;28;20447;-56
2022/10/31 13:49:39;;;;;;;3.85;2.03;;;;;;;;;;10412526;28;20041;-56
2022/10/31 13:54:40;;;;;;;5.35;2.72;;;;;;;;;;10387258;28;20501;-54
2022/10/31 13:59:46;;;;;;;6.32;2.72;;;;;;;;;;10403499;28;20050;-55
2022/10/31 14:04:48;;;;;;;4.07;2.50;;;;;;;;;;10400044;28;20073;-55
2022/10/31 14:09:57;;;;;;;4.28;2.42;;;;;;;;;;10407109;28;20040;-55
2022/10/31 14:15:17;;;;;;;4.50;2.05;;;;;;;;;;10404145;28;20058;-55
2022/10/31 14:20:17;;;;;;;3.63;2.28;;;;;;;;;;10395534;28;20036;-56
2022/10/31 14:25:29;;;;;;;4.88;2.38;;;;;;;;;;10411270;28;20033;-53
2022/10/31 14:30:30;;;;;;;3.55;2.80;;;;;;;;;;10402093;28;20496;-55
2022/10/31 14:36:02;;;;;;;2.70;2.50;;;;;;;;;;10398877;28;20032;-55
2022/10/31 14:41:05;;;;;;;3.40;2.20;;;;;;;;;;10383457;28;20044;-55
2022/10/31 14:46:17;;;;;;;3.30;2.40;;;;;;;;;;10410456;28;20025;-55
2022/10/31 14:51:22;;;;;;;5.82;2.60;;;;;;;;;;10397727;28;20037;-56
2022/10/31 14:56:24;;;;;;;4.45;2.83;;;;;;;;;;10409830;28;20032;-55
2022/10/31 15:01:29;;;;;;;3.75;2.70;;;;;;;;;;10383434;28;20397;-56
2022/10/31 15:06:31;;;;;;;4.88;2.80;;;;;;;;;;10398188;28;20040;-54
2022/10/31 15:11:36;;;;;;;5.20;2.45;;;;;;;;;;10397226;28;20385;-56
2022/10/31 15:16:43;;;;;;;4.80;2.58;;;;;;;;;;10404469;28;20021;-57
2022/10/31 15:21:47;;;;;;;5.13;2.55;;;;;;;;;;10409234;28;20086;-56
2022/10/31 15:26:50;;;;;;;2.75;2.40;;;;;;;;;;10408964;28;20029;-57
2022/10/31 15:31:51;;;;;;;3.28;2.53;;;;;;;;;;10409371;28;20112;-56
2022/10/31 15:36:52;;;;;;;3.47;2.42;;;;;;;;;;10395381;28;20041;-57
2022/10/31 15:41:53;;;;;;;4.33;2.33;;;;;;;;;;10407603;28;20051;-56
2022/10/31 15:46:54;;;;;;;2.95;2.45;;;;;;;;;;10378548;28;20022;-63
2022/10/31 15:51:55;;;;;;;4.75;2.20;;;;;;;;;;10378028;28;20053;-62
2022/10/31 15:56:55;;;;;;;3.40;2.67;;;;;;;;;;10394364;28;20032;-63
2022/10/31 16:01:59;;;;;;;3.50;2.20;;;;;;;;;;10395265;28;20052;-63
2022/10/31 16:07:01;;;;;;;3.63;2.65;;;;;;;;;;10395434;28;20029;-63
2022/10/31 16:12:02;;;;;;;2.63;2.30;;;;;;;;;;10393056;28;20040;-63
2022/10/31 16:17:03;;;;;;;3.85;2.08;;;;;;;;;;10396686;28;20435;-63
2022/10/31 16:22:11;;;;;;;3.50;2.70;;;;;;;;;;10405219;28;20113;-64
2022/10/31 16:27:28;;;;;;;4.60;2.47;;;;;;;;;;10396687;28;20153;-63
2022/10/31 16:32:31;;;;;;;2.45;2.08;;;;;;;;;;10406566;28;20296;-63
2022/10/31 16:37:32;;;;;;;3.33;2.20;;;;;;;;;;10406622;28;20491;-63
2022/10/31 16:42:32;;;;;;;2.50;2.30;;;;;;;;;;10395070;28;20040;-64
2022/10/31 16:47:32;;;;;;;4.90;2.17;;;;;;;;;;10394561;28;20052;-63
2022/10/31 16:52:32;;;;;;;3.67;2.22;;;;;;;;;;10389722;28;20113;-62
2022/10/31 16:57:34;;;;;;;2.28;1.98;;;;;;;;;;10405704;28;20034;-62
2022/10/31 17:02:34;;;;;;;4.32;2.80;;;;;;;;;;10393576;28;20577;-62
2022/10/31 17:07:35;;;;;;;2.90;2.42;;;;;;;;;;10392721;28;20035;-61
2022/10/31 17:12:35;;;;;;;3.47;2.35;;;;;;;;;;10395057;28;20262;-61
2022/10/31 17:17:36;;;;;;;3.97;2.28;;;;;;;;;;10395526;28;20036;-63
2022/10/31 17:22:36;;;;;;;4.13;2.35;;;;;;;;;;10374260;28;20068;-63
2022/10/31 17:27:36;;;;;;;3.70;2.45;;;;;;;;;;10377069;28;20018;-63
2022/10/31 17:32:36;;;;;;;10.30;3.10;;;;;;;;;;10377039;28;20122;-63
2022/10/31 17:37:37;;;;;;;8.02;2.20;;;;;;;;;;10387234;28;20029;-64
2022/10/31 17:42:37;;;;;;;4.40;2.78;;;;;;;;;;10386931;28;20030;-62
2022/10/31 17:47:38;;;;;;;4.00;2.60;;;;;;;;;;10377188;28;20030;-63
2022/10/31 17:52:38;;;;;;;3.67;2.70;;;;;;;;;;10385490;28;20026;-70
2022/10/31 17:57:38;;;;;;;10.85;3.33;;;;;;;;;;10407019;28;20136;-63
2022/10/31 18:02:39;;;;;;;5.90;2.97;;;;;;;;;;10385199;28;20049;-64
2022/10/31 18:07:39;;;;;;;6.43;2.50;;;;;;;;;;10412271;28;20056;-65
2022/10/31 18:12:39;;;;;;;6.47;2.78;;;;;;;;;;10410084;28;20037;-65
2022/10/31 18:17:44;;;;;;;9.80;3.13;;;;;;;;;;10407583;28;20032;-65
2022/10/31 18:22:45;;;;;;;5.38;3.10;;;;;;;;;;10397834;28;20033;-62
2022/10/31 18:27:45;;;;;;;8.35;3.15;;;;;;;;;;10380784;28;20075;-65
2022/10/31 18:32:47;;;;;;;5.90;3.05;;;;;;;;;;10382073;28;20038;-65
2022/10/31 18:37:48;;;;;;;5.22;3.17;;;;;;;;;;10398028;28;20358;-64
2022/10/31 18:42:48;;;;;;;29.53;4.23;;;;;;;;;;10399133;28;20037;-58
2022/10/31 18:47:52;;;;;;;17.17;3.95;;;;;;;;;;10374147;28;20029;-62
2022/10/31 18:52:52;;;;;;;15.25;4.10;;;;;;;;;;10395480;28;20029;-62
2022/10/31 18:57:53;;;;;;;9.90;3.90;;;;;;;;;;10387833;28;20489;-63
2022/10/31 19:02:53;;;;;;;14.50;3.97;;;;;;;;;;10396000;28;20029;-63
2022/10/31 19:07:53;;;;;;;11.30;3.67;;;;;;;;;;10397929;28;20023;-62
2022/10/31 19:12:53;;;;;;;10.10;3.63;;;;;;;;;;10391386;28;20045;-63
2022/10/31 19:17:54;;;;;;;15.68;4.05;;;;;;;;;;10409450;28;20483;-63
2022/10/31 19:22:54;;;;;;;13.60;4.35;;;;;;;;;;10409061;28;20527;-60
2022/10/31 19:27:55;;;;;;;12.65;4.35;;;;;;;;;;10398024;28;20024;-61
2022/10/31 19:32:55;;;;;;;9.00;3.88;;;;;;;;;;10385528;28;20044;-62
2022/10/31 19:37:55;;;;;;;11.37;4.10;;;;;;;;;;10398271;28;20045;-60
2022/10/31 19:42:57;;;;;;;10.18;3.85;;;;;;;;;;10399320;28;20062;-53
2022/10/31 19:47:57;;;;;;;7.22;3.78;;;;;;;;;;10390847;28;20065;-55
2022/10/31 19:52:57;;;;;;;9.32;3.72;;;;;;;;;;10393832;28;20034;-60
2022/10/31 19:57:57;;;;;;;13.15;4.43;;;;;;;;;;10403046;28;20041;-61
2022/10/31 20:02:58;;;;;;;9.93;4.20;;;;;;;;;;10373346;28;20038;-51
2022/10/31 20:07:58;;;;;;;10.57;4.43;;;;;;;;;;10378502;28;20026;-60
2022/10/31 20:12:58;;;;;;;11.05;4.35;;;;;;;;;;10381849;28;20025;-62
2022/10/31 20:17:59;;;;;;;7.38;3.85;;;;;;;;;;10377957;28;20052;-62
2022/10/31 20:22:59;;;;;;;14.17;4.80;;;;;;;;;;10378379;28;20470;-61
2022/10/31 20:27:59;;;;;;;13.60;4.88;;;;;;;;;;10385755;28;20048;-59
2022/10/31 20:32:59;;;;;;;10.50;4.28;;;;;;;;;;10405839;28;20025;-62
2022/10/31 20:38:00;;;;;;;14.80;5.10;;;;;;;;;;10405195;28;20043;-59
2022/10/31 20:43:01;;;;;;;12.95;4.82;;;;;;;;;;10405597;28;20021;-61
2022/10/31 20:48:01;;;;;;;17.80;4.78;;;;;;;;;;10406877;28;20048;-63
2022/10/31 20:53:01;;;;;;;9.97;4.63;;;;;;;;;;10406909;28;20037;-59
2022/10/31 20:58:01;;;;;;;13.45;4.60;;;;;;;;;;10409709;28;20045;-62
2022/10/31 21:03:02;;;;;;;7.97;4.05;;;;;;;;;;10403381;28;20047;-60
2022/10/31 21:08:02;;;;;;;10.05;4.72;;;;;;;;;;10409086;28;20416;-62
2022/10/31 21:13:06;;;;;;;12.82;5.05;;;;;;;;;;10414237;28;20029;-63
2022/10/31 21:18:06;;;;;;;12.27;5.40;;;;;;;;;;10412966;28;20030;-63
2022/10/31 21:23:06;;;;;;;10.48;4.60;;;;;;;;;;10401339;28;20033;-61
2022/10/31 21:28:08;;;;;;;9.98;5.13;;;;;;;;;;10413623;28;20018;-63
2022/10/31 21:33:08;;;;;;;12.50;5.35;;;;;;;;;;10396988;28;20087;-62
2022/10/31 21:38:08;;;;;;;14.67;5.77;;;;;;;;;;10404591;28;21885;-63
2022/10/31 21:43:09;;;;;;;9.37;5.63;;;;;;;;;;10402337;28;20068;-63
2022/10/31 21:48:09;;;;;;;11.55;5.57;;;;;;;;;;10400293;28;20038;-63
2022/10/31 21:58:28;;;;;;;17.58;5.60;;;;;;;;;;10390086;28;20824;-63
2022/10/31 22:03:29;;;;;;;13.67;5.37;;;;;;;;;;10388487;28;20489;-63
2022/10/31 22:08:29;;;;;;;12.05;5.45;;;;;;;;;;10409513;28;20462;-61
2022/10/31 22:13:30;;;;;;;8.83;4.33;;;;;;;;;;10411712;28;20045;-63
2022/10/31 22:18:31;;;;;;;14.15;5.22;;;;;;;;;;10398304;28;20033;-63
2022/10/31 22:23:31;;;;;;;12.27;5.00;;;;;;;;;;10398596;28;20026;-62
2022/10/31 22:28:32;;;;;;;9.20;4.93;;;;;;;;;;10411454;28;20104;-61
2022/10/31 22:33:32;;;;;;;15.63;5.47;;;;;;;;;;10398269;28;20040;-60
2022/10/31 22:38:34;;;;;;;8.80;4.93;;;;;;;;;;10411580;28;20017;-60
2022/10/31 22:43:34;;;;;;;7.65;4.78;;;;;;;;;;10409423;28;20370;-62
2022/10/31 22:48:37;;;;;;;9.45;5.13;;;;;;;;;;10383948;28;20021;-60
2022/10/31 22:53:38;;;;;;;10.90;4.85;;;;;;;;;;10397427;28;20026;-56
2022/10/31 22:58:38;;;;;;;17.92;5.47;;;;;;;;;;10409919;28;20643;-62
2022/10/31 23:03:38;;;;;;;11.00;5.13;;;;;;;;;;10390252;28;20021;-58
2022/10/31 23:08:39;;;;;;;9.65;5.25;;;;;;;;;;10410001;28;20037;-56
2022/10/31 23:18:58;;;;;;;12.18;5.15;;;;;;;;;;10408536;28;20033;-62
2022/10/31 23:23:59;;;;;;;16.23;5.15;;;;;;;;;;10395250;28;20485;-62
2022/10/31 23:28:59;;;;;;;12.05;5.32;;;;;;;;;;10395475;28;20048;-59
2022/10/31 23:33:59;;;;;;;8.85;4.75;;;;;;;;;;10398745;28;20042;-63
2022/10/31 23:38:59;;;;;;;9.75;4.80;;;;;;;;;;10393189;28;20029;-59
2022/10/31 23:44:00;;;;;;;10.05;5.07;;;;;;;;;;10407408;28;20581;-62
2022/10/31 23:49:00;;;;;;;7.75;4.60;;;;;;;;;;10394938;28;20374;-61
2022/10/31 23:54:00;;;;;;;10.23;5.40;;;;;;;;;;10408661;28;20480;-62
2022/10/31 23:59:00;;;;;;;12.43;5.15;;;;;;;;;;10405241;28;20045;-63
